createdAt,value
2023-02-02T00:02:17.183Z,-0.05
2023-02-02T00:04:49.295Z,-0.14
2023-02-02T00:07:16.689Z,-0.11
2023-02-02T00:09:43.473Z,-0.08
2023-02-02T00:12:15.653Z,-0.07
2023-02-02T00:14:42.838Z,-0.14
2023-02-02T00:17:10.166Z,-0.19
2023-02-02T00:19:41.988Z,-0.19
2023-02-02T00:22:09.081Z,-0.14
2023-02-02T00:24:36.131Z,-0.15
2023-02-02T00:27:04.200Z,-0.24
2023-02-02T00:29:31.787Z,-0.26
2023-02-02T00:31:59.110Z,-0.29
2023-02-02T00:34:26.021Z,-0.29
2023-02-02T00:36:53.368Z,-0.26
2023-02-02T00:39:30.752Z,-0.29
2023-02-02T00:41:57.667Z,-0.29
2023-02-02T00:44:48.345Z,-0.23
2023-02-02T00:47:16.306Z,-0.21
2023-02-02T00:49:43.095Z,-0.17
2023-02-02T00:52:11.363Z,-0.09
2023-02-02T00:54:39.675Z,-0.13
2023-02-02T00:57:06.495Z,-0.11
2023-02-02T00:59:33.731Z,-0.16
2023-02-02T01:02:01.609Z,-0.09
2023-02-02T01:04:28.635Z,-0.05
2023-02-02T01:07:05.699Z,-0.08
2023-02-02T01:17:19.669Z,-0.13
2023-02-02T01:19:48.151Z,-0.13
2023-02-02T01:22:16.309Z,-0.20
2023-02-02T01:24:50.629Z,-0.20
2023-02-02T01:27:19.849Z,-0.16
2023-02-02T01:29:48.029Z,-0.10
2023-02-02T01:32:16.300Z,-0.05
2023-02-02T01:34:45.189Z,0.02
2023-02-02T01:37:18.474Z,0.04
2023-02-02T01:39:52.020Z,-0.04
2023-02-02T01:42:21.848Z,-0.08
2023-02-02T01:45:13.961Z,-0.13
2023-02-02T01:47:55.055Z,-0.16
2023-02-02T01:50:25.820Z,-0.13
2023-02-02T01:52:55.536Z,-0.17
2023-02-02T01:55:29.796Z,-0.24
2023-02-02T01:58:01.334Z,-0.24
2023-02-02T02:00:29.592Z,-0.22
2023-02-02T02:03:01.886Z,-0.27
2023-02-02T02:05:33.011Z,-0.29
2023-02-02T02:08:11.288Z,-0.32
2023-02-02T02:18:59.339Z,-0.26
2023-02-02T02:21:56.134Z,-0.27
2023-02-02T02:25:12.423Z,-0.25
2023-02-02T02:27:57.220Z,-0.19
2023-02-02T02:30:52.200Z,-0.18
2023-02-02T02:33:36.586Z,-0.22
2023-02-02T02:36:23.153Z,-0.25
2023-02-02T02:39:02.386Z,-0.25
2023-02-02T02:41:40.305Z,-0.14
2023-02-02T02:44:11.551Z,-0.07
2023-02-02T02:46:39.769Z,-0.13
2023-02-02T02:49:09.859Z,-0.20
2023-02-02T02:51:49.109Z,-0.16
2023-02-02T02:54:40.610Z,-0.08
2023-02-02T02:57:18.136Z,-0.03
2023-02-02T03:00:11.334Z,-0.06
2023-02-02T03:02:49.144Z,-0.07
2023-02-02T03:05:36.526Z,-0.06
2023-02-02T03:08:27.729Z,-0.09
2023-02-02T03:10:56.428Z,-0.11
2023-02-02T03:13:24.926Z,-0.19
2023-02-02T03:15:53.410Z,-0.20
2023-02-02T03:18:28.505Z,-0.17
2023-02-02T03:21:01.995Z,-0.09
2023-02-02T03:23:30.487Z,-0.04
2023-02-02T03:25:59.856Z,-0.03
2023-02-02T03:28:28.180Z,-0.02
2023-02-02T03:30:56.513Z,-0.03
2023-02-02T03:33:24.853Z,-0.01
2023-02-02T03:35:53.339Z,0.04
2023-02-02T03:38:21.731Z,0.10
2023-02-02T03:40:51.388Z,0.17
2023-02-02T03:43:24.846Z,0.18
2023-02-02T03:45:58.094Z,0.22
2023-02-02T03:48:26.824Z,0.32
2023-02-02T03:50:55.763Z,0.40
2023-02-02T03:53:24.084Z,0.42
2023-02-02T03:55:58.015Z,0.41
2023-02-02T03:58:26.871Z,0.40
2023-02-02T04:01:00.262Z,0.34
2023-02-02T04:03:30.129Z,0.32
2023-02-02T08:11:04.059Z,1.22
2023-02-02T08:13:31.332Z,1.64
2023-02-02T08:15:58.570Z,1.80
2023-02-02T08:18:25.929Z,1.88
2023-02-02T08:20:53.036Z,1.88
2023-02-02T08:23:23.174Z,1.90
2023-02-02T08:25:50.453Z,2.01
2023-02-02T08:28:17.858Z,2.24
2023-02-02T08:30:45.194Z,2.42
2023-02-02T08:33:12.771Z,2.66
2023-02-02T08:35:43.153Z,3.00
2023-02-02T08:38:10.075Z,3.48
2023-02-02T08:40:38.061Z,4.12
2023-02-02T08:43:05.519Z,4.69
2023-02-02T08:46:01.207Z,5.26
2023-02-02T08:48:28.785Z,6.01
2023-02-02T08:51:01.598Z,6.61
2023-02-02T08:53:36.438Z,6.94
2023-02-02T08:56:14.012Z,6.62
2023-02-02T08:58:55.471Z,6.64
2023-02-02T09:01:29.590Z,6.72
2023-02-02T09:04:07.949Z,7.07
2023-02-02T09:06:40.606Z,7.22
2023-02-02T09:09:19.187Z,7.12
2023-02-02T09:14:41.218Z,7.80
2023-02-02T09:17:19.909Z,8.36
2023-02-02T09:19:48.788Z,8.56
2023-02-02T09:22:18.478Z,8.74
2023-02-02T09:24:47.775Z,8.66
2023-02-02T09:27:18.038Z,8.75
2023-02-02T09:29:48.405Z,9.40
2023-02-02T09:32:16.901Z,9.94
2023-02-02T09:34:47.350Z,10.18
2023-02-02T09:37:15.744Z,10.68
2023-02-02T09:39:42.884Z,11.21
2023-02-02T09:42:34.711Z,11.43
2023-02-02T09:45:03.195Z,11.12
2023-02-02T09:47:34.711Z,10.73
2023-02-02T09:50:22.809Z,10.78
2023-02-02T09:58:52.187Z,10.98
2023-02-02T10:01:24.109Z,10.69
2023-02-02T10:04:22.152Z,10.06
2023-02-02T10:06:55.253Z,9.65
2023-02-02T10:09:48.829Z,9.51
2023-02-02T10:12:17.111Z,9.81
2023-02-02T10:14:54.647Z,9.67
2023-02-02T10:17:56.119Z,9.36
2023-02-02T10:21:02.377Z,8.71
2023-02-02T10:23:55.306Z,8.45
2023-02-02T10:26:38.716Z,8.00
2023-02-02T10:30:09.370Z,8.24
2023-02-02T10:33:06.527Z,8.50
2023-02-02T10:35:48.803Z,8.13
2023-02-02T10:38:23.837Z,8.19
2023-02-02T10:41:04.113Z,8.80
2023-02-02T10:44:28.212Z,9.26
2023-02-02T10:46:56.756Z,9.64
2023-02-02T10:49:32.809Z,10.04
2023-02-02T10:52:01.631Z,10.51
2023-02-02T10:54:54.861Z,10.87
2023-02-02T10:57:39.980Z,10.73
2023-02-02T11:00:22.606Z,10.49
2023-02-02T11:02:52.124Z,10.44
2023-02-02T11:05:43.736Z,10.34
2023-02-02T11:08:47.828Z,9.86
2023-02-02T11:11:39.856Z,9.05
2023-02-02T11:14:08.446Z,8.53
2023-02-02T11:16:43.545Z,8.47
2023-02-02T11:19:18.299Z,8.37
2023-02-02T11:21:50.898Z,8.22
2023-02-02T11:24:46.611Z,8.50
2023-02-02T11:27:14.823Z,9.15
2023-02-02T11:29:46.920Z,9.83
2023-02-02T11:32:32.814Z,10.47
2023-02-02T11:35:08.500Z,10.84
2023-02-02T11:38:08.297Z,10.90
2023-02-02T11:40:55.031Z,10.24
2023-02-02T11:43:29.484Z,9.88
2023-02-02T11:46:05.401Z,9.54
2023-02-02T11:48:34.808Z,8.93
2023-02-02T11:51:03.709Z,8.35
2023-02-02T11:53:49.781Z,7.82
2023-02-02T11:56:25.730Z,7.32
2023-02-02T11:58:59.906Z,6.86
2023-02-02T12:01:45.401Z,6.78
2023-02-02T12:04:32.646Z,7.05
2023-02-02T12:07:01.545Z,7.40
2023-02-02T12:09:30.029Z,7.54
2023-02-02T12:12:03.770Z,7.59
2023-02-02T12:14:35.484Z,7.08
2023-02-02T12:17:42.064Z,6.62
2023-02-02T12:20:27.981Z,6.28
2023-02-02T12:23:20.755Z,5.95
2023-02-02T12:25:55.211Z,5.59
2023-02-02T12:28:51.850Z,5.40
2023-02-02T12:31:39.373Z,5.41
2023-02-02T12:34:29.015Z,5.31
2023-02-02T12:37:21.146Z,5.18
2023-02-02T12:40:05.042Z,4.96
2023-02-02T12:42:36.825Z,4.69
2023-02-02T12:45:40.985Z,4.56
2023-02-02T12:48:34.655Z,4.60
2023-02-02T12:51:09.972Z,4.53
2023-02-02T12:54:35.213Z,4.49
2023-02-02T12:57:13.470Z,4.50
2023-02-02T13:00:04.657Z,4.55
2023-02-02T13:03:03.585Z,4.47
2023-02-02T13:05:57.965Z,4.28
2023-02-02T13:08:38.065Z,4.23
2023-02-02T13:11:30.183Z,4.14
2023-02-02T13:14:10.531Z,4.06
2023-02-02T13:16:41.403Z,3.98
2023-02-02T13:19:19.876Z,3.92
2023-02-02T13:21:48.361Z,3.93
2023-02-02T13:24:24.534Z,3.85
2023-02-02T13:26:52.951Z,3.93
2023-02-02T13:29:34.890Z,3.92
2023-02-02T13:32:34.513Z,3.88
2023-02-02T13:35:14.008Z,3.92
2023-02-02T13:37:42.755Z,3.90
2023-02-02T13:40:37.017Z,3.73
2023-02-02T13:43:08.702Z,3.55
2023-02-02T13:46:05.787Z,3.58
2023-02-02T13:49:03.552Z,3.66
2023-02-02T13:51:54.049Z,3.68
2023-02-02T13:54:35.067Z,3.49
2023-02-02T13:57:16.461Z,3.41
2023-02-02T14:00:19.024Z,3.42
2023-02-02T14:02:52.131Z,3.47
2023-02-02T14:05:29.726Z,3.42
2023-02-02T14:08:02.180Z,3.37
2023-02-02T14:10:38.714Z,3.34
2023-02-02T14:13:32.946Z,3.33
2023-02-02T14:16:03.743Z,3.25
2023-02-02T14:18:56.378Z,3.24
2023-02-02T14:21:34.284Z,3.35
2023-02-02T14:24:47.862Z,3.30
2023-02-02T14:27:19.667Z,3.22
2023-02-02T14:29:54.516Z,3.11
2023-02-02T14:32:27.922Z,2.97
2023-02-02T14:35:10.229Z,2.83
2023-02-02T14:37:43.286Z,2.79
2023-02-02T14:40:27.452Z,2.81
2023-02-02T14:43:37.109Z,2.80
2023-02-02T14:46:14.948Z,2.72
2023-02-02T14:48:47.532Z,2.63
2023-02-02T14:51:27.920Z,2.58
2023-02-02T14:54:01.449Z,2.55
2023-02-02T14:56:50.303Z,2.52
2023-02-02T14:59:36.920Z,2.49
2023-02-02T15:02:24.246Z,2.47
2023-02-02T15:04:53.832Z,2.45
2023-02-02T15:07:25.084Z,2.45
2023-02-02T15:09:56.764Z,2.48
2023-02-02T15:12:33.578Z,2.52
2023-02-02T15:15:23.715Z,2.47
2023-02-02T15:18:33.500Z,2.45
2023-02-02T15:21:01.824Z,2.43
2023-02-02T15:23:41.735Z,2.44
2023-02-02T15:26:13.423Z,2.43
2023-02-02T15:28:41.825Z,2.47
2023-02-02T15:31:35.405Z,2.46
2023-02-02T15:34:25.576Z,2.44
2023-02-02T15:36:55.906Z,2.43
2023-02-02T15:39:31.774Z,2.43
2023-02-02T15:42:20.680Z,2.36
2023-02-02T15:44:49.489Z,2.34
2023-02-02T15:47:20.029Z,2.31
2023-02-02T15:49:48.826Z,2.33
2023-02-02T15:52:25.500Z,2.25
2023-02-02T15:55:00.801Z,2.18
2023-02-02T15:57:29.690Z,2.14
2023-02-02T15:59:58.351Z,2.16
2023-02-02T16:02:42.882Z,2.19
2023-02-02T16:05:33.500Z,2.19
2023-02-02T16:08:06.531Z,2.20
2023-02-02T16:10:35.846Z,2.08
2023-02-02T16:13:04.943Z,2.01
2023-02-02T16:15:33.729Z,1.99
2023-02-02T16:18:08.066Z,1.97
2023-02-02T16:20:37.049Z,1.99
2023-02-02T16:23:19.347Z,2.03
2023-02-02T16:25:51.426Z,2.05
2023-02-02T16:28:20.342Z,2.01
2023-02-02T16:30:49.076Z,1.91
2023-02-02T16:33:27.432Z,1.92
2023-02-02T16:35:56.246Z,1.95
2023-02-02T16:38:35.377Z,2.03
2023-02-02T16:41:11.001Z,2.05
2023-02-02T16:43:50.307Z,2.05
2023-02-02T16:46:41.273Z,2.01
2023-02-02T16:49:16.428Z,1.94
2023-02-02T16:51:46.676Z,1.92
2023-02-02T16:54:20.216Z,1.90
2023-02-02T16:56:52.378Z,1.90
2023-02-02T16:59:34.547Z,1.91
2023-02-02T17:02:25.143Z,1.93
2023-02-02T17:05:07.357Z,1.85
2023-02-02T17:07:35.980Z,1.67
2023-02-02T17:10:36.250Z,1.55
2023-02-02T17:13:30.613Z,1.49
2023-02-02T17:16:05.433Z,1.46
2023-02-02T17:18:35.077Z,1.43
2023-02-02T17:21:07.954Z,1.43
2023-02-02T17:23:39.877Z,1.39
2023-02-02T17:26:13.829Z,1.32
2023-02-02T17:28:42.476Z,1.25
2023-02-02T17:31:13.685Z,1.22
2023-02-02T17:33:49.067Z,1.21
2023-02-02T17:36:17.800Z,1.17
2023-02-02T17:38:46.176Z,1.13
2023-02-02T17:41:14.612Z,1.09
2023-02-02T17:43:43.245Z,1.12
2023-02-02T17:46:14.226Z,1.19
2023-02-02T17:48:44.492Z,1.24
2023-02-02T17:51:16.794Z,1.25
2023-02-02T17:53:46.401Z,1.22
2023-02-02T17:56:14.940Z,1.15
2023-02-02T17:58:43.573Z,1.14
2023-02-02T18:01:11.996Z,1.19
2023-02-02T18:03:41.006Z,1.26
2023-02-02T18:06:10.112Z,1.26
2023-02-02T18:08:38.917Z,1.34
2023-02-02T18:11:13.109Z,1.43
2023-02-02T18:13:43.032Z,1.45
2023-02-02T18:16:12.412Z,1.46
2023-02-02T18:18:40.826Z,1.51
2023-02-02T18:21:10.194Z,1.51
2023-02-02T18:23:38.627Z,1.50
2023-02-02T18:26:15.260Z,1.53
2023-02-02T18:28:44.058Z,1.55
2023-02-02T18:31:13.958Z,1.57
2023-02-02T18:33:47.718Z,1.56
2023-02-02T18:36:20.736Z,1.58
2023-02-02T18:38:51.150Z,1.58
2023-02-02T18:41:21.640Z,1.61
2023-02-02T18:43:53.243Z,1.61
2023-02-02T18:46:22.109Z,1.66
2023-02-02T18:48:50.593Z,1.79
2023-02-02T18:51:19.056Z,1.85
2023-02-02T18:53:47.925Z,1.83
2023-02-02T18:56:17.725Z,1.82
2023-02-02T18:58:46.728Z,1.83
2023-02-02T19:01:16.829Z,1.85
2023-02-02T19:03:50.761Z,1.85
2023-02-02T19:06:38.579Z,1.84
2023-02-02T19:09:07.470Z,1.88
2023-02-02T19:11:40.033Z,1.88
2023-02-02T19:14:19.945Z,1.93
2023-02-02T19:16:54.833Z,1.97
2023-02-02T19:19:30.920Z,1.97
2023-02-02T19:22:12.852Z,1.94
2023-02-02T19:24:41.449Z,2.00
2023-02-02T19:27:18.518Z,2.08
2023-02-02T19:29:47.754Z,2.13
2023-02-02T19:32:25.254Z,2.13
2023-02-02T19:35:02.067Z,2.15
2023-02-02T19:37:33.265Z,2.17
2023-02-02T19:40:13.829Z,2.14
2023-02-02T19:42:55.699Z,2.06
2023-02-02T19:45:26.717Z,2.04
2023-02-02T19:48:00.702Z,2.01
2023-02-02T19:50:33.485Z,2.02
2023-02-02T19:53:06.771Z,2.06
2023-02-02T19:55:36.648Z,2.08
2023-02-02T19:58:29.159Z,2.03
2023-02-02T20:00:58.223Z,2.01
2023-02-02T20:03:27.589Z,2.03
2023-02-02T20:05:57.594Z,2.04
2023-02-02T20:08:33.981Z,1.97
2023-02-02T20:11:37.481Z,1.94
2023-02-02T20:14:18.798Z,1.95
2023-02-02T20:16:52.021Z,1.93
2023-02-02T20:19:30.375Z,1.92
2023-02-02T20:22:00.072Z,1.91
2023-02-02T20:24:38.250Z,1.87
2023-02-02T20:27:26.157Z,1.79
2023-02-02T20:30:00.625Z,1.77
2023-02-02T20:32:37.211Z,1.80
2023-02-02T20:35:43.835Z,1.78
2023-02-02T20:38:22.652Z,1.75
2023-02-02T20:40:52.580Z,1.71
2023-02-02T20:43:21.313Z,1.72
2023-02-02T20:45:50.700Z,1.75
2023-02-02T20:48:19.628Z,1.71
2023-02-02T20:50:49.741Z,1.71
2023-02-02T20:53:18.325Z,1.71
2023-02-02T20:55:46.618Z,1.68
2023-02-02T20:58:15.409Z,1.65
2023-02-02T21:00:43.761Z,1.58
2023-02-02T21:03:13.671Z,1.59
2023-02-02T21:05:43.835Z,1.60
2023-02-02T21:08:12.157Z,1.55
2023-02-02T21:10:40.590Z,1.50
2023-02-02T21:13:09.181Z,1.48
2023-02-02T21:15:37.826Z,1.42
2023-02-02T21:18:08.320Z,1.39
2023-02-02T21:20:37.076Z,1.40
2023-02-02T21:23:10.547Z,1.40
2023-02-02T21:25:39.084Z,1.43
2023-02-02T21:28:13.561Z,1.39
2023-02-02T21:30:42.106Z,1.34
2023-02-02T21:33:11.374Z,1.34
2023-02-02T21:35:40.295Z,1.32
2023-02-02T21:38:13.794Z,1.33
2023-02-02T21:40:42.249Z,1.32
2023-02-02T21:43:15.936Z,1.28
2023-02-02T21:45:45.402Z,1.26
2023-02-02T21:48:19.963Z,1.24
2023-02-02T21:50:48.564Z,1.26
2023-02-02T21:53:23.895Z,1.23
2023-02-02T21:55:56.827Z,1.16
2023-02-02T21:58:39.711Z,1.14
2023-02-02T22:01:36.328Z,1.13
2023-02-02T22:04:22.132Z,1.11
2023-02-02T22:07:16.660Z,1.09
